createdAt,value
2022-10-13T00:01:39.839Z,100876.69
2022-10-13T00:04:07.974Z,100874.13
2022-10-13T00:06:36.053Z,100859.16
2022-10-13T00:09:04.102Z,100861.75
2022-10-13T00:11:35.651Z,100864.44
2022-10-13T00:14:05.359Z,100858.22
2022-10-13T00:16:37.421Z,100859.94
2022-10-13T00:19:05.313Z,100863.56
2022-10-13T00:21:33.333Z,100866.31
2022-10-13T00:24:03.322Z,100864.59
2022-10-13T00:26:31.490Z,100861.13
2022-10-13T00:29:00.814Z,100868.28
2022-10-13T00:31:30.819Z,100871.94
2022-10-13T00:34:00.332Z,100876.50
2022-10-13T00:36:29.766Z,100872.09
2022-10-13T00:38:58.313Z,100878.41
2022-10-13T00:41:26.948Z,100874.03
2022-10-13T00:43:58.640Z,100874.88
2022-10-13T00:46:30.740Z,100880.13
2022-10-13T00:49:01.741Z,100880.13
2022-10-13T00:51:34.978Z,100876.59
2022-10-13T00:54:06.994Z,100876.50
2022-10-13T00:56:39.175Z,100871.94
2022-10-13T00:59:12.291Z,100868.38
2022-10-13T01:01:43.785Z,100872.88
2022-10-13T01:04:12.243Z,100867.59
2022-10-13T01:06:42.699Z,100863.19
2022-10-13T01:09:16.607Z,100867.63
2022-10-13T01:12:01.183Z,100869.28
2022-10-13T01:14:35.194Z,100866.66
2022-10-13T01:17:13.428Z,100859.63
2022-10-13T01:20:09.692Z,100870.22
2022-10-13T01:22:52.535Z,100858.72
2022-10-13T01:25:47.827Z,100863.94
2022-10-13T01:28:38.359Z,100865.69
2022-10-13T01:31:16.359Z,100864.78
2022-10-13T01:33:51.068Z,100863.06
2022-10-13T01:36:28.670Z,100863.00
2022-10-13T01:39:04.308Z,100853.31
2022-10-13T01:41:37.953Z,100849.75
2022-10-13T01:44:16.186Z,100843.53
2022-10-13T01:46:53.697Z,100843.50
2022-10-13T01:49:29.246Z,100837.28
2022-10-13T01:52:02.823Z,100833.78
2022-10-13T01:54:30.912Z,100842.56
2022-10-13T01:57:00.782Z,100839.88
2022-10-13T01:59:32.730Z,100839.94
2022-10-13T02:02:14.203Z,100847.84
2022-10-13T02:04:54.013Z,100843.44
2022-10-13T02:07:28.956Z,100840.81
2022-10-13T02:10:04.918Z,100838.22
2022-10-13T02:12:41.840Z,100835.63
2022-10-13T02:15:15.054Z,100833.00
2022-10-13T02:20:58.886Z,100836.81
2022-10-13T02:23:28.177Z,100824.41
2022-10-13T02:26:00.102Z,100826.28
2022-10-13T02:28:29.092Z,100829.78
2022-10-13T02:30:57.617Z,100831.59
2022-10-13T02:33:25.872Z,100836.09
2022-10-13T02:35:53.821Z,100827.31
2022-10-13T02:38:23.487Z,100825.59
2022-10-13T02:40:51.620Z,100830.91
2022-10-13T02:43:22.283Z,100824.75
2022-10-13T02:45:50.440Z,100819.38
2022-10-13T02:48:18.679Z,100818.56
2022-10-13T02:50:49.053Z,100818.66
2022-10-13T02:53:19.547Z,100815.16
2022-10-13T02:55:51.278Z,100812.53
2022-10-13T02:58:19.305Z,100812.66
2022-10-13T03:00:47.482Z,100816.25
2022-10-13T03:03:17.861Z,100818.06
2022-10-13T03:05:50.419Z,100819.81
2022-10-13T03:08:21.670Z,100823.31
2022-10-13T03:10:51.488Z,100819.88
2022-10-13T03:13:19.505Z,100819.88
2022-10-13T03:15:48.138Z,100818.09
2022-10-13T03:18:16.326Z,100819.00
2022-10-13T03:20:44.286Z,100819.88
2022-10-13T03:23:12.681Z,100809.25
2022-10-13T03:25:41.319Z,100813.63
2022-10-13T03:28:10.804Z,100803.88
2022-10-13T03:30:38.787Z,100805.59
2022-10-13T03:33:06.854Z,100805.59
2022-10-13T03:35:34.814Z,100812.66
2022-10-13T03:38:02.993Z,100808.22
2022-10-13T03:40:34.319Z,100814.38
2022-10-13T03:43:05.436Z,100809.88
2022-10-13T03:45:34.716Z,100804.56
2022-10-13T03:48:02.856Z,100814.31
2022-10-13T03:50:33.007Z,100808.91
2022-10-13T03:53:01.445Z,100812.38
2022-10-13T03:55:29.428Z,100817.63
2022-10-13T03:57:57.857Z,100818.41
2022-10-13T04:00:25.758Z,100820.06
2022-10-13T04:02:55.183Z,100805.81
2022-10-13T04:05:23.350Z,100799.56
2022-10-13T04:07:51.253Z,100808.38
2022-10-13T04:10:26.387Z,100805.72
2022-10-13T04:12:54.314Z,100806.59
2022-10-13T04:15:22.524Z,100803.06
2022-10-13T04:17:50.979Z,100805.72
2022-10-13T04:20:20.568Z,100809.25
2022-10-13T04:22:48.933Z,100817.19
2022-10-13T04:25:17.515Z,100809.09
2022-10-13T04:27:48.107Z,100815.25
2022-10-13T04:30:16.458Z,100809.91
2022-10-13T04:32:44.586Z,100809.88
2022-10-13T04:35:12.784Z,100808.09
2022-10-13T04:37:45.129Z,100804.47
2022-10-13T04:40:15.622Z,100805.31
2022-10-13T04:42:46.258Z,100801.78
2022-10-13T04:45:14.557Z,100812.31
2022-10-13T04:47:44.322Z,100810.47
2022-10-13T04:50:12.611Z,100807.84
2022-10-13T04:52:42.578Z,100803.38
2022-10-13T04:55:12.381Z,100812.22
2022-10-13T04:57:40.542Z,100807.78
2022-10-13T05:00:09.648Z,100793.56
2022-10-13T05:02:38.504Z,100793.59
2022-10-13T05:05:07.503Z,100785.69
2022-10-13T05:07:38.419Z,100780.41
2022-10-13T05:10:08.917Z,100774.31
2022-10-13T05:12:39.662Z,100769.13
2022-10-13T05:15:09.135Z,100757.75
2022-10-13T05:17:37.070Z,100764.88
2022-10-13T05:20:10.883Z,100754.28
2022-10-13T05:22:38.861Z,100756.06
2022-10-13T05:25:08.976Z,100763.22
2022-10-13T05:27:37.001Z,100758.78
2022-10-13T05:30:08.613Z,100762.28
2022-10-13T05:32:38.978Z,100753.41
2022-10-13T05:35:10.095Z,100751.56
2022-10-13T05:37:41.570Z,100744.38
2022-10-13T05:40:12.288Z,100753.19
2022-10-13T05:42:40.425Z,100746.03
2022-10-13T05:45:12.758Z,100749.47
2022-10-13T05:47:40.668Z,100751.13
2022-10-13T05:50:09.679Z,100755.50
2022-10-13T05:52:42.140Z,100753.66
2022-10-13T05:55:14.499Z,100757.19
2022-10-13T05:57:49.434Z,100758.91
2022-10-13T06:00:19.486Z,100753.53
2022-10-13T06:02:53.565Z,100748.97
2022-10-13T06:05:25.336Z,100744.50
2022-10-13T06:07:55.650Z,100747.16
2022-10-13T06:10:25.354Z,100754.22
2022-10-13T06:12:53.504Z,100750.53
2022-10-13T06:15:25.660Z,100750.47
2022-10-13T06:17:57.370Z,100755.81
2022-10-13T06:20:27.511Z,100763.59
2022-10-13T06:22:55.932Z,100759.09
2022-10-13T06:25:25.686Z,100759.94
2022-10-13T06:27:53.838Z,100756.38
2022-10-13T06:30:21.933Z,100758.03
2022-10-13T06:32:49.896Z,100770.38
2022-10-13T06:35:18.377Z,100765.91
2022-10-13T06:37:48.616Z,100759.75
2022-10-13T06:40:19.330Z,100762.34
2022-10-13T06:42:52.044Z,100769.31
2022-10-13T06:45:23.786Z,100770.19
2022-10-13T06:47:54.870Z,100762.13
2022-10-13T06:50:23.825Z,100755.84
2022-10-13T06:52:56.693Z,100753.06
2022-10-13T06:55:25.155Z,100740.38
2022-10-13T06:57:56.951Z,100749.38
2022-10-13T07:00:27.271Z,100751.13
2022-10-13T07:02:55.729Z,100756.16
2022-10-13T07:05:24.114Z,100765.72
2022-10-13T07:07:53.287Z,100768.94
2022-10-13T07:10:21.861Z,100763.06
2022-10-13T07:12:49.953Z,100774.41
2022-10-13T07:15:19.496Z,100763.47
2022-10-13T07:17:51.879Z,100773.19
2022-10-13T07:21:59.028Z,100756.22
2022-10-13T07:24:29.500Z,100745.53
2022-10-13T07:26:57.551Z,100742.56
2022-10-13T07:29:26.361Z,100749.47
2022-10-13T07:31:54.435Z,100738.47
2022-10-13T07:34:24.872Z,100734.75
2022-10-13T07:36:52.971Z,100735.47
2022-10-13T07:39:26.818Z,100737.25
2022-10-13T07:41:54.871Z,100733.38
2022-10-13T07:44:22.761Z,100731.03
2022-10-13T07:46:50.863Z,100724.44
2022-10-13T07:49:19.107Z,100731.53
2022-10-13T07:51:49.864Z,100729.41
2022-10-13T07:54:23.751Z,100733.75
2022-10-13T07:56:57.193Z,100730.19
2022-10-13T07:59:25.867Z,100736.84
2022-10-13T08:01:54.259Z,100738.72
2022-10-13T08:04:22.222Z,100734.47
2022-10-13T08:06:50.167Z,100733.09
2022-10-13T08:09:18.436Z,100732.50
2022-10-13T08:11:46.404Z,100730.69
2022-10-13T08:14:15.984Z,100732.47
2022-10-13T08:16:48.593Z,100732.72
2022-10-13T08:19:22.259Z,100731.53
2022-10-13T08:21:58.059Z,100746.38
2022-10-13T08:24:26.999Z,100741.91
2022-10-13T08:26:57.308Z,100743.06
2022-10-13T08:29:29.411Z,100748.50
2022-10-13T08:31:57.305Z,100751.19
2022-10-13T08:34:26.224Z,100754.75
2022-10-13T08:36:57.705Z,100703.06
2022-10-13T08:39:26.313Z,100742.44
2022-10-13T08:41:57.370Z,100741.56
2022-10-13T08:47:31.196Z,100745.44
2022-10-13T08:50:04.764Z,100749.78
2022-10-13T08:52:48.412Z,100750.66
2022-10-13T08:55:26.993Z,100748.00
2022-10-13T08:57:55.185Z,100747.97
2022-10-13T09:00:31.448Z,100748.78
2022-10-13T09:03:10.356Z,100759.31
2022-10-13T09:05:48.044Z,100752.19
2022-10-13T09:08:20.769Z,100740.97
2022-10-13T09:10:51.288Z,100753.31
2022-10-13T09:13:20.709Z,100753.25
2022-10-13T09:15:51.313Z,100758.25
2022-10-13T09:18:19.970Z,100754.41
2022-10-13T09:20:47.942Z,100760.00
2022-10-13T09:23:20.604Z,100757.16
2022-10-13T09:25:56.098Z,100747.84
2022-10-13T09:28:27.216Z,100747.25
2022-10-13T09:31:07.250Z,100745.78
2022-10-13T09:33:40.959Z,100732.44
2022-10-13T09:36:14.225Z,100749.94
2022-10-13T09:38:45.875Z,100748.66
2022-10-13T09:41:20.772Z,100747.66
2022-10-13T09:44:00.908Z,100748.25
2022-10-13T09:46:33.828Z,100755.59
2022-10-13T09:49:05.477Z,100746.09
2022-10-13T09:51:39.828Z,100735.69
2022-10-13T09:54:29.013Z,100734.09
2022-10-13T09:57:04.114Z,100725.44
2022-10-13T09:59:34.890Z,100723.31
2022-10-13T10:02:20.353Z,100713.81
2022-10-13T10:04:54.228Z,100720.22
2022-10-13T10:07:26.898Z,100731.69
2022-10-13T10:10:04.904Z,100735.50
2022-10-13T10:12:37.033Z,100744.34
2022-10-13T10:15:20.608Z,100748.00
2022-10-13T10:17:58.693Z,100748.94
2022-10-13T10:20:46.215Z,100745.75
2022-10-13T10:23:20.320Z,100743.91
2022-10-13T10:25:53.957Z,100754.75
2022-10-13T10:28:40.711Z,100747.19
2022-10-13T10:31:21.734Z,100741.78
2022-10-13T10:34:03.381Z,100736.34
2022-10-13T10:36:42.178Z,100735.81
2022-10-13T10:39:22.833Z,100727.59
2022-10-13T10:42:01.908Z,100718.59
2022-10-13T10:44:34.311Z,100707.91
2022-10-13T10:47:06.924Z,100690.44
2022-10-13T10:49:39.426Z,100678.44
2022-10-13T10:52:17.457Z,100679.78
2022-10-13T10:55:04.780Z,100681.50
2022-10-13T10:57:41.967Z,100685.16
2022-10-13T11:00:16.464Z,100673.19
2022-10-13T11:02:53.375Z,100662.44
2022-10-13T11:05:23.088Z,100644.50
2022-10-13T11:07:59.878Z,100653.84
2022-10-13T11:10:29.679Z,100634.78
2022-10-13T11:13:19.811Z,100640.84
2022-10-13T11:15:48.024Z,100627.25
2022-10-13T11:18:49.021Z,100626.47
2022-10-13T11:21:18.538Z,100621.75
2022-10-13T11:23:48.622Z,100615.81
2022-10-13T11:26:31.445Z,100625.69
2022-10-13T11:29:00.687Z,100615.75
2022-10-13T11:31:35.157Z,100606.09
2022-10-13T11:34:04.806Z,100607.72
2022-10-13T11:36:46.861Z,100603.81
2022-10-13T11:39:47.672Z,100608.38
2022-10-13T11:42:47.672Z,100605.25
2022-10-13T11:45:28.940Z,100601.84
2022-10-13T11:48:22.187Z,100613.94
2022-10-13T11:51:01.124Z,100613.13
2022-10-13T11:53:42.849Z,100608.81
2022-10-13T11:56:20.972Z,100604.50
2022-10-13T11:58:49.179Z,100616.00
2022-10-13T12:01:19.060Z,100606.91
2022-10-13T12:03:49.415Z,100606.91
2022-10-13T12:06:33.217Z,100602.44
2022-10-13T12:09:06.753Z,100606.66
2022-10-13T12:11:37.341Z,100612.69
2022-10-13T12:14:20.339Z,100612.88
2022-10-13T12:23:00.222Z,100609.53
2022-10-13T12:25:30.975Z,100596.78
2022-10-13T12:28:01.644Z,100587.22
2022-10-13T12:30:35.797Z,100584.97
2022-10-13T12:33:05.871Z,100587.13
2022-10-13T12:35:34.799Z,100575.72
2022-10-13T12:38:08.712Z,100573.03
2022-10-13T12:40:37.495Z,100569.41
2022-10-13T12:43:06.247Z,100553.91
2022-10-13T12:45:36.314Z,100554.38
2022-10-13T12:48:04.307Z,100547.38
2022-10-13T12:50:42.205Z,100546.53
2022-10-13T12:53:16.641Z,100550.56
2022-10-13T12:55:59.005Z,100551.19
2022-10-13T12:58:30.456Z,100539.44
2022-10-13T13:01:11.003Z,100544.25
2022-10-13T13:03:40.239Z,100554.13
2022-10-13T13:06:11.876Z,100541.59
2022-10-13T13:08:43.181Z,100539.50
2022-10-13T13:11:22.777Z,100536.28
2022-10-13T13:13:52.627Z,100534.63
2022-10-13T13:16:23.405Z,100537.31
2022-10-13T13:18:54.007Z,100551.88
2022-10-13T13:21:22.104Z,100552.06
2022-10-13T13:23:54.278Z,100548.06
2022-10-13T13:26:25.016Z,100543.69
2022-10-13T13:28:55.530Z,100516.38
2022-10-13T13:31:27.161Z,100517.16
2022-10-13T13:33:55.303Z,100526.34
2022-10-13T13:36:25.007Z,100523.13
2022-10-13T13:38:56.944Z,100531.13
2022-10-13T13:41:27.695Z,100526.06
2022-10-13T13:43:55.750Z,100531.66
2022-10-13T13:46:27.666Z,100535.41
2022-10-13T13:48:55.600Z,100523.81
2022-10-13T13:51:23.701Z,100517.72
2022-10-13T13:53:51.904Z,100521.69
2022-10-13T13:56:24.425Z,100516.66
2022-10-13T13:58:52.623Z,100514.84
2022-10-13T14:01:23.630Z,100510.72
2022-10-13T14:03:51.932Z,100499.22
2022-10-13T14:06:21.353Z,100503.97
2022-10-13T14:08:50.376Z,100500.78
2022-10-13T14:11:19.065Z,100501.00
2022-10-13T14:13:48.343Z,100508.56
2022-10-13T14:16:25.510Z,100522.03
2022-10-13T14:18:57.599Z,100512.13
2022-10-13T14:21:30.062Z,100508.06
2022-10-13T14:23:58.137Z,100511.03
2022-10-13T14:26:26.153Z,100510.72
2022-10-13T14:28:55.801Z,100519.72
2022-10-13T14:31:23.860Z,100529.75
2022-10-13T14:33:54.245Z,100520.91
2022-10-13T14:36:25.455Z,100519.56
2022-10-13T14:38:54.841Z,100528.72
2022-10-13T14:41:24.822Z,100528.16
2022-10-13T14:43:55.577Z,100516.53
2022-10-13T14:46:24.941Z,100518.34
2022-10-13T14:48:56.659Z,100524.59
2022-10-13T14:51:26.688Z,100521.03
2022-10-13T14:53:54.783Z,100514.00
2022-10-13T14:56:24.671Z,100516.53
2022-10-13T14:58:57.337Z,100502.31
2022-10-13T15:01:30.533Z,100497.97
2022-10-13T15:03:58.655Z,100496.28
2022-10-13T15:06:28.045Z,100496.44
2022-10-13T15:08:56.495Z,100507.09
2022-10-13T15:11:27.847Z,100497.53
2022-10-13T15:13:57.245Z,100490.50
2022-10-13T15:16:28.002Z,100497.03
2022-10-13T15:18:56.582Z,100491.44
2022-10-13T15:21:25.109Z,100503.28
2022-10-13T15:23:53.269Z,100500.38
2022-10-13T15:26:21.759Z,100498.94
2022-10-13T15:28:51.722Z,100507.13
2022-10-13T15:31:22.858Z,100501.03
2022-10-13T15:33:52.580Z,100507.28
2022-10-13T15:36:25.273Z,100501.91
2022-10-13T15:38:53.434Z,100501.13
2022-10-13T15:41:23.064Z,100499.75
2022-10-13T15:43:53.708Z,100501.09
2022-10-13T15:46:24.104Z,100500.41
2022-10-13T15:48:53.319Z,100480.63
2022-10-13T15:51:24.185Z,100494.81
2022-10-13T15:53:52.427Z,100504.78
2022-10-13T15:56:20.615Z,100499.56
2022-10-13T15:58:50.810Z,100509.03
2022-10-13T16:01:18.867Z,100497.00
2022-10-13T16:03:48.144Z,100493.91
2022-10-13T16:06:16.266Z,100495.34
2022-10-13T16:08:44.668Z,100492.16
2022-10-13T16:11:14.980Z,100492.47
2022-10-13T16:13:46.086Z,100488.16
2022-10-13T16:16:14.719Z,100497.09
2022-10-13T16:18:43.778Z,100492.72
2022-10-13T16:21:18.608Z,100503.50
2022-10-13T16:23:49.750Z,100499.16
2022-10-13T16:26:18.358Z,100495.59
2022-10-13T16:28:46.733Z,100499.22
2022-10-13T16:31:16.383Z,100491.31
2022-10-13T16:33:46.047Z,100488.69
2022-10-13T16:36:17.930Z,100491.44
2022-10-13T16:38:47.639Z,100483.44
2022-10-13T16:41:18.103Z,100492.44
2022-10-13T16:43:49.700Z,100490.81
2022-10-13T16:46:19.326Z,100487.41
2022-10-13T16:48:49.763Z,100475.22
2022-10-13T16:51:21.246Z,100483.16
2022-10-13T16:53:50.272Z,100481.56
2022-10-13T16:56:22.124Z,100472.13
2022-10-13T16:58:50.673Z,100479.81
2022-10-13T17:01:18.872Z,100479.16
2022-10-13T17:03:47.950Z,100482.63
2022-10-13T17:06:16.977Z,100481.03
2022-10-13T17:08:47.245Z,100473.91
2022-10-13T17:11:17.882Z,100486.50
2022-10-13T17:13:48.218Z,100482.91
2022-10-13T17:16:19.428Z,100492.66
2022-10-13T17:18:47.946Z,100483.03
2022-10-13T17:24:01.377Z,100487.09
2022-10-13T17:26:29.483Z,100497.78
2022-10-13T17:28:57.509Z,100490.47
2022-10-13T17:31:26.073Z,100490.44
2022-10-13T17:33:54.667Z,100488.81
2022-10-13T17:36:24.990Z,100490.44
2022-10-13T17:38:55.154Z,100493.13
2022-10-13T17:41:25.372Z,100490.31
2022-10-13T17:43:53.865Z,100493.00
2022-10-13T17:46:36.368Z,100492.19
2022-10-13T17:49:06.839Z,100493.03
2022-10-13T17:51:35.522Z,100488.56
2022-10-13T17:54:03.825Z,100494.03
2022-10-13T17:56:35.831Z,100496.72
2022-10-13T17:59:05.947Z,100495.72
2022-10-13T18:01:35.855Z,100494.88
2022-10-13T18:04:06.124Z,100499.34
2022-10-13T18:19:58.677Z,100505.59
2022-10-13T18:22:30.032Z,100502.03
2022-10-13T18:25:00.313Z,100498.47
2022-10-13T18:27:28.425Z,100498.47
2022-10-13T18:29:56.426Z,100492.25
2022-10-13T18:32:24.502Z,100490.38
2022-10-13T18:34:56.206Z,100485.00
2022-10-13T18:37:25.888Z,100485.88
2022-10-13T18:39:54.073Z,100478.09
2022-10-13T18:42:22.426Z,100483.31
2022-10-13T18:44:50.512Z,100491.31
2022-10-13T18:47:19.292Z,100489.56
2022-10-13T18:49:47.411Z,100495.81
2022-10-13T18:52:16.353Z,100491.38
2022-10-13T18:54:50.667Z,100493.91
2022-10-13T18:57:19.662Z,100503.75
2022-10-13T18:59:48.836Z,100502.84
2022-10-13T19:02:17.404Z,100506.31
2022-10-13T19:04:45.328Z,100508.94
2022-10-13T19:07:13.668Z,100511.53
2022-10-13T19:09:41.720Z,100508.81
2022-10-13T19:12:11.658Z,100507.88
2022-10-13T19:14:39.638Z,100503.38
2022-10-13T19:17:12.232Z,100490.88
2022-10-13T19:19:41.392Z,100487.25
2022-10-13T19:22:10.111Z,100473.44
2022-10-13T19:24:38.144Z,100485.59
2022-10-13T19:27:06.458Z,100483.88
2022-10-13T19:29:36.814Z,100483.16
2022-10-13T19:32:07.779Z,100478.72
2022-10-13T19:34:35.998Z,100487.69
2022-10-13T19:37:06.687Z,100485.97
2022-10-13T19:39:34.787Z,100488.56
2022-10-13T19:42:03.088Z,100486.75
2022-10-13T19:44:31.522Z,100484.00
2022-10-13T19:47:00.826Z,100487.63
2022-10-13T19:49:31.445Z,100487.63
2022-10-13T19:51:59.518Z,100488.50
2022-10-13T19:54:33.747Z,100501.78
2022-10-13T19:57:02.099Z,100501.72
2022-10-13T19:59:30.219Z,100509.81
2022-10-13T20:01:58.345Z,100500.91
2022-10-13T20:04:27.919Z,100508.00
2022-10-13T20:06:55.943Z,100497.41
2022-10-13T20:09:24.168Z,100505.50
2022-10-13T20:11:52.694Z,100505.44
2022-10-13T20:14:21.059Z,100508.09
2022-10-13T20:16:49.701Z,100503.59
2022-10-13T20:19:19.673Z,100495.69
2022-10-13T20:21:51.691Z,100493.00
2022-10-13T20:24:20.836Z,100501.06
2022-10-13T20:26:48.834Z,100494.03
2022-10-13T20:29:19.025Z,100490.56
2022-10-13T20:31:49.965Z,100489.75
2022-10-13T20:34:17.963Z,100498.72
2022-10-13T20:36:45.879Z,100495.16
2022-10-13T20:39:15.325Z,100478.41
2022-10-13T20:41:43.675Z,100484.56
2022-10-13T20:44:12.586Z,100481.06
2022-10-13T20:46:40.426Z,100480.22
2022-10-13T20:49:11.888Z,100482.19
2022-10-13T20:51:43.973Z,100479.59
2022-10-13T20:54:13.520Z,100477.91
2022-10-13T20:56:43.826Z,100474.41
2022-10-13T20:59:14.448Z,100484.31
2022-10-13T21:01:42.725Z,100481.69
2022-10-13T21:04:11.186Z,100484.44
2022-10-13T21:06:43.911Z,100481.88
2022-10-13T21:09:11.846Z,100483.75
2022-10-13T21:11:44.431Z,100491.81
2022-10-13T21:14:12.403Z,100488.34
2022-10-13T21:16:41.152Z,100492.88
2022-10-13T21:19:12.366Z,100493.00
2022-10-13T21:21:40.419Z,100489.56
2022-10-13T21:24:09.404Z,100499.34
2022-10-13T21:26:38.325Z,100498.47
2022-10-13T21:29:07.830Z,100493.06
2022-10-13T21:31:36.888Z,100503.75
2022-10-13T21:34:05.188Z,100503.75
2022-10-13T21:36:34.441Z,100504.72
2022-10-13T21:39:04.271Z,100490.56
2022-10-13T21:41:33.848Z,100501.84
2022-10-13T21:44:01.735Z,100502.72
2022-10-13T21:46:34.842Z,100500.03
2022-10-13T21:49:06.809Z,100502.66
2022-10-13T21:51:37.470Z,100500.84
2022-10-13T21:54:08.485Z,100504.41
2022-10-13T21:56:38.065Z,100507.06
2022-10-13T21:59:06.375Z,100507.06
2022-10-13T22:01:35.861Z,100493.69
2022-10-13T22:04:13.149Z,100491.94
2022-10-13T22:06:44.542Z,100493.00
2022-10-13T22:09:13.102Z,100496.56
2022-10-13T22:11:41.318Z,100502.72
2022-10-13T22:14:15.256Z,100493.06
2022-10-13T22:16:49.379Z,100499.28
2022-10-13T22:19:19.012Z,100494.88
2022-10-13T22:21:48.921Z,100498.41
2022-10-13T22:24:18.488Z,100497.59
2022-10-13T22:26:49.158Z,100498.47
2022-10-13T22:29:19.429Z,100495.81
2022-10-13T22:31:52.794Z,100502.91
2022-10-13T22:34:21.308Z,100499.34
2022-10-13T22:36:49.488Z,100496.72
2022-10-13T22:39:17.750Z,100497.69
2022-10-13T22:41:47.931Z,100498.56
2022-10-13T22:44:15.950Z,100493.25
2022-10-13T22:46:44.061Z,100494.16
2022-10-13T22:49:16.554Z,100498.66
2022-10-13T22:51:46.864Z,100492.47
2022-10-13T22:54:14.870Z,100492.47
2022-10-13T22:56:43.241Z,100497.09
2022-10-13T22:59:12.935Z,100494.47
2022-10-13T23:01:41.141Z,100486.56
2022-10-13T23:04:11.636Z,100495.44
2022-10-13T23:06:43.173Z,100494.53
2022-10-13T23:09:13.739Z,100492.78
2022-10-13T23:13:22.722Z,100488.72
2022-10-13T23:15:51.709Z,100488.72
2022-10-13T23:18:19.614Z,100492.22
2022-10-13T23:20:47.506Z,100489.63
2022-10-13T23:23:16.184Z,100486.06
2022-10-13T23:25:44.030Z,100486.88
2022-10-13T23:28:14.533Z,100487.78
2022-10-13T23:30:44.081Z,100491.28
2022-10-13T23:33:12.086Z,100491.34
2022-10-13T23:35:40.906Z,100484.19
2022-10-13T23:38:10.177Z,100488.66
2022-10-13T23:40:38.075Z,100482.44
2022-10-13T23:43:05.974Z,100478.91
2022-10-13T23:45:33.969Z,100482.44
2022-10-13T23:48:03.605Z,100475.41
2022-10-13T23:50:35.191Z,100475.41
2022-10-13T23:53:05.122Z,100481.75
2022-10-13T23:55:33.156Z,100484.41
2022-10-13T23:58:03.659Z,100486.28
